Main page
METAR-TAF:

METAR-TAF

Airports :

Morón Air Base

Morón de la Frontera, Spain

latitude: 37-09N, longitude: 005-37W, elevation: 87 m

Current weather observation

The report was made 12 minutes ago, at 04:00 UTC
Wind 5 kt from the South
Temperature 19°C
Humidity 56%
Pressure 1014 hPa
Visibility 10 km or more
no clouds below 1500 m and no cumulonimbus

METAR: LEMO 200400Z 19005KT CAVOK 19/10 Q1014 NOSIG

Time: 06:12 (04:12 UTC)

Forecast

The report was made 2 hours and 12 minutes ago, at 02:00 UTC
Forecast valid from 20 at 03 UTC to 20 at 12 UTC
Wind 6 kt from the South/Southwest
Visibility 10 km or more
no clouds below 1500 m and no cumulonimbus

TAF: LEMO 200200Z 2003/2012 21006KT CAVOK

Weather observations and forecasts of more than 4000 airports (METAR and TAF reports).

The available stations are represented by yellow and red dots on the map.

Hover mouse over dot to see the name of the station.

Then click to see weather observations and forecasts.

To change the map : click on the green buttons with a black cross to zoom in, on the green button with a dash to zoom out, or on the green arrows for adjacent maps.


METAR-TAF: